sensor_id;sensor_type;location;lat;lon;timestamp;pressure;altitude;pressure_sealevel;temperature;humidity
13348;BME280;6743;49.934;9.138;2022-07-23T00:00:04;100322.06;;;24.19;100.00
13348;BME280;6743;49.934;9.138;2022-07-23T00:02:30;100303.09;;;24.19;100.00
13348;BME280;6743;49.934;9.138;2022-07-23T00:04:56;100291.50;;;24.23;100.00
13348;BME280;6743;49.934;9.138;2022-07-23T00:07:22;100282.56;;;24.23;100.00
13348;BME280;6743;49.934;9.138;2022-07-23T00:09:48;100293.41;;;24.23;100.00
13348;BME280;6743;49.934;9.138;2022-07-23T00:12:14;100300.03;;;24.15;100.00
13348;BME280;6743;49.934;9.138;2022-07-23T00:14:40;100288.56;;;24.08;100.00
13348;BME280;6743;49.934;9.138;2022-07-23T00:17:07;100272.00;;;24.05;100.00
13348;BME280;6743;49.934;9.138;2022-07-23T00:19:33;100280.25;;;24.15;100.00
13348;BME280;6743;49.934;9.138;2022-07-23T00:21:59;100265.81;;;24.09;100.00
13348;BME280;6743;49.934;9.138;2022-07-23T00:24:25;100267.97;;;24.07;100.00
13348;BME280;6743;49.934;9.138;2022-07-23T00:26:51;100262.28;;;24.09;100.00
13348;BME280;6743;49.934;9.138;2022-07-23T00:29:17;100267.41;;;24.05;100.00
13348;BME280;6743;49.934;9.138;2022-07-23T00:31:43;100270.56;;;23.97;100.00
13348;BME280;6743;49.934;9.138;2022-07-23T00:34:10;100275.34;;;23.90;100.00
13348;BME280;6743;49.934;9.138;2022-07-23T00:36:36;100282.84;;;23.83;100.00
13348;BME280;6743;49.934;9.138;2022-07-23T00:39:02;100282.25;;;23.81;100.00
13348;BME280;6743;49.934;9.138;2022-07-23T00:41:28;100283.91;;;23.82;100.00
13348;BME280;6743;49.934;9.138;2022-07-23T00:43:54;100286.38;;;23.83;100.00
13348;BME280;6743;49.934;9.138;2022-07-23T00:46:20;100286.31;;;23.78;100.00
13348;BME280;6743;49.934;9.138;2022-07-23T00:48:46;100264.19;;;23.65;100.00
13348;BME280;6743;49.934;9.138;2022-07-23T00:51:14;100268.22;;;23.62;100.00
13348;BME280;6743;49.934;9.138;2022-07-23T00:53:41;100282.06;;;23.66;100.00
13348;BME280;6743;49.934;9.138;2022-07-23T00:56:08;100277.41;;;23.61;100.00
13348;BME280;6743;49.934;9.138;2022-07-23T00:58:35;100251.25;;;23.50;100.00
13348;BME280;6743;49.934;9.138;2022-07-23T01:01:01;100258.94;;;23.58;100.00
13348;BME280;6743;49.934;9.138;2022-07-23T01:03:28;100255.44;;;23.58;100.00
13348;BME280;6743;49.934;9.138;2022-07-23T01:06:04;100252.38;;;23.54;100.00
13348;BME280;6743;49.934;9.138;2022-07-23T01:08:32;100248.84;;;23.53;100.00
13348;BME280;6743;49.934;9.138;2022-07-23T01:10:58;100241.56;;;23.54;100.00
13348;BME280;6743;49.934;9.138;2022-07-23T01:13:24;100242.38;;;23.54;100.00
13348;BME280;6743;49.934;9.138;2022-07-23T01:15:50;100235.81;;;23.50;100.00
13348;BME280;6743;49.934;9.138;2022-07-23T01:18:16;100246.28;;;23.47;100.00
13348;BME280;6743;49.934;9.138;2022-07-23T01:20:42;100243.75;;;23.40;100.00
13348;BME280;6743;49.934;9.138;2022-07-23T01:23:09;100247.22;;;23.36;100.00
13348;BME280;6743;49.934;9.138;2022-07-23T01:25:35;100248.06;;;23.20;100.00
13348;BME280;6743;49.934;9.138;2022-07-23T01:28:01;100248.22;;;23.13;100.00
13348;BME280;6743;49.934;9.138;2022-07-23T01:30:27;100260.78;;;23.02;100.00
13348;BME280;6743;49.934;9.138;2022-07-23T01:32:53;100245.44;;;22.91;100.00
13348;BME280;6743;49.934;9.138;2022-07-23T01:35:19;100258.06;;;22.86;100.00
13348;BME280;6743;49.934;9.138;2022-07-23T01:37:45;100270.25;;;22.71;100.00
13348;BME280;6743;49.934;9.138;2022-07-23T01:40:12;100279.47;;;22.59;100.00
13348;BME280;6743;49.934;9.138;2022-07-23T01:42:38;100291.34;;;22.58;100.00
13348;BME280;6743;49.934;9.138;2022-07-23T01:45:05;100295.66;;;22.42;100.00
13348;BME280;6743;49.934;9.138;2022-07-23T01:47:31;100299.00;;;22.32;100.00
13348;BME280;6743;49.934;9.138;2022-07-23T01:49:58;100308.47;;;22.35;100.00
13348;BME280;6743;49.934;9.138;2022-07-23T01:52:24;100309.13;;;22.25;100.00
13348;BME280;6743;49.934;9.138;2022-07-23T01:54:50;100290.53;;;22.29;100.00
13348;BME280;6743;49.934;9.138;2022-07-23T01:57:16;100288.56;;;22.24;100.00
13348;BME280;6743;49.934;9.138;2022-07-23T01:59:42;100299.81;;;22.33;100.00
13348;BME280;6743;49.934;9.138;2022-07-23T02:02:08;100296.28;;;22.32;100.00
13348;BME280;6743;49.934;9.138;2022-07-23T02:04:34;100303.16;;;22.12;100.00
13348;BME280;6743;49.934;9.138;2022-07-23T02:07:02;100289.66;;;22.12;100.00
13348;BME280;6743;49.934;9.138;2022-07-23T02:09:29;100292.59;;;22.10;100.00
13348;BME280;6743;49.934;9.138;2022-07-23T02:11:55;100273.72;;;21.98;100.00
13348;BME280;6743;49.934;9.138;2022-07-23T02:14:21;100265.03;;;21.96;100.00
13348;BME280;6743;49.934;9.138;2022-07-23T02:16:47;100273.97;;;21.97;100.00
13348;BME280;6743;49.934;9.138;2022-07-23T02:19:13;100282.88;;;21.97;100.00
13348;BME280;6743;49.934;9.138;2022-07-23T02:21:40;100292.25;;;21.95;100.00
13348;BME280;6743;49.934;9.138;2022-07-23T02:24:06;100299.53;;;21.94;100.00
13348;BME280;6743;49.934;9.138;2022-07-23T02:26:32;100290.97;;;21.86;100.00
13348;BME280;6743;49.934;9.138;2022-07-23T02:29:00;100301.41;;;21.94;100.00
13348;BME280;6743;49.934;9.138;2022-07-23T02:31:27;100294.37;;;21.81;100.00
13348;BME280;6743;49.934;9.138;2022-07-23T02:33:53;100291.09;;;21.79;100.00
13348;BME280;6743;49.934;9.138;2022-07-23T02:36:20;100287.47;;;21.74;100.00
13348;BME280;6743;49.934;9.138;2022-07-23T02:38:47;100294.03;;;21.66;100.00
13348;BME280;6743;49.934;9.138;2022-07-23T02:41:13;100293.84;;;21.56;100.00
13348;BME280;6743;49.934;9.138;2022-07-23T02:43:39;100279.28;;;21.57;100.00
13348;BME280;6743;49.934;9.138;2022-07-23T02:46:05;100287.25;;;21.64;100.00
13348;BME280;6743;49.934;9.138;2022-07-23T02:48:31;100297.78;;;21.65;100.00
13348;BME280;6743;49.934;9.138;2022-07-23T02:50:57;100314.25;;;21.64;100.00
13348;BME280;6743;49.934;9.138;2022-07-23T02:53:23;100312.84;;;21.61;100.00
13348;BME280;6743;49.934;9.138;2022-07-23T02:55:50;100306.00;;;21.58;100.00
13348;BME280;6743;49.934;9.138;2022-07-23T02:58:16;100314.00;;;21.53;100.00
13348;BME280;6743;49.934;9.138;2022-07-23T03:00:42;100323.38;;;21.39;100.00
13348;BME280;6743;49.934;9.138;2022-07-23T03:03:08;100334.88;;;21.23;100.00
13348;BME280;6743;49.934;9.138;2022-07-23T03:05:34;100333.59;;;21.26;100.00
13348;BME280;6743;49.934;9.138;2022-07-23T03:08:01;100321.97;;;21.25;100.00
13348;BME280;6743;49.934;9.138;2022-07-23T03:10:27;100325.97;;;21.23;100.00
13348;BME280;6743;49.934;9.138;2022-07-23T03:12:53;100325.00;;;21.17;100.00
13348;BME280;6743;49.934;9.138;2022-07-23T03:15:19;100337.41;;;21.06;100.00
13348;BME280;6743;49.934;9.138;2022-07-23T03:17:45;100344.53;;;21.01;100.00
13348;BME280;6743;49.934;9.138;2022-07-23T03:20:11;100330.47;;;20.99;100.00
13348;BME280;6743;49.934;9.138;2022-07-23T03:22:37;100327.31;;;21.02;100.00
13348;BME280;6743;49.934;9.138;2022-07-23T03:25:04;100322.25;;;20.94;100.00
13348;BME280;6743;49.934;9.138;2022-07-23T03:27:30;100313.78;;;20.90;100.00
13348;BME280;6743;49.934;9.138;2022-07-23T03:29:58;100320.38;;;20.94;100.00
13348;BME280;6743;49.934;9.138;2022-07-23T03:32:24;100325.66;;;21.01;100.00
13348;BME280;6743;49.934;9.138;2022-07-23T03:34:51;100328.25;;;21.07;100.00
13348;BME280;6743;49.934;9.138;2022-07-23T03:37:18;100332.59;;;21.08;100.00
13348;BME280;6743;49.934;9.138;2022-07-23T03:39:45;100338.81;;;21.09;100.00
13348;BME280;6743;49.934;9.138;2022-07-23T03:42:11;100341.59;;;21.02;100.00
13348;BME280;6743;49.934;9.138;2022-07-23T03:44:37;100327.12;;;20.85;100.00
13348;BME280;6743;49.934;9.138;2022-07-23T03:47:04;100325.75;;;20.94;100.00
13348;BME280;6743;49.934;9.138;2022-07-23T03:49:30;100320.12;;;20.96;100.00
13348;BME280;6743;49.934;9.138;2022-07-23T03:51:56;100325.97;;;20.81;100.00
13348;BME280;6743;49.934;9.138;2022-07-23T03:54:22;100344.84;;;20.81;100.00
13348;BME280;6743;49.934;9.138;2022-07-23T03:56:49;100361.34;;;20.73;100.00
13348;BME280;6743;49.934;9.138;2022-07-23T03:59:15;100369.50;;;20.66;100.00
13348;BME280;6743;49.934;9.138;2022-07-23T04:01:41;100372.75;;;20.57;100.00
13348;BME280;6743;49.934;9.138;2022-07-23T04:04:07;100392.28;;;20.52;100.00
13348;BME280;6743;49.934;9.138;2022-07-23T04:06:34;100386.47;;;20.37;100.00
13348;BME280;6743;49.934;9.138;2022-07-23T04:09:00;100384.94;;;20.41;100.00
13348;BME280;6743;49.934;9.138;2022-07-23T04:11:26;100390.94;;;20.43;100.00
13348;BME280;6743;49.934;9.138;2022-07-23T04:13:53;100383.47;;;20.45;100.00
13348;BME280;6743;49.934;9.138;2022-07-23T04:16:19;100384.12;;;20.40;100.00
13348;BME280;6743;49.934;9.138;2022-07-23T04:18:45;100384.22;;;20.34;100.00
13348;BME280;6743;49.934;9.138;2022-07-23T04:21:11;100382.50;;;20.39;100.00
13348;BME280;6743;49.934;9.138;2022-07-23T04:23:37;100400.91;;;20.42;100.00
13348;BME280;6743;49.934;9.138;2022-07-23T04:26:03;100405.47;;;20.42;100.00
13348;BME280;6743;49.934;9.138;2022-07-23T04:28:29;100401.19;;;20.34;100.00
13348;BME280;6743;49.934;9.138;2022-07-23T04:30:56;100394.00;;;20.28;100.00
13348;BME280;6743;49.934;9.138;2022-07-23T04:33:23;100396.41;;;20.18;100.00
13348;BME280;6743;49.934;9.138;2022-07-23T04:35:49;100394.81;;;20.11;100.00
13348;BME280;6743;49.934;9.138;2022-07-23T04:38:15;100402.91;;;20.11;100.00
13348;BME280;6743;49.934;9.138;2022-07-23T04:40:41;100385.09;;;20.10;100.00
13348;BME280;6743;49.934;9.138;2022-07-23T04:43:07;100371.41;;;20.11;100.00
13348;BME280;6743;49.934;9.138;2022-07-23T04:45:33;100377.62;;;20.12;100.00
13348;BME280;6743;49.934;9.138;2022-07-23T04:47:59;100391.66;;;20.14;100.00
13348;BME280;6743;49.934;9.138;2022-07-23T04:50:26;100398.84;;;20.01;100.00
13348;BME280;6743;49.934;9.138;2022-07-23T04:52:52;100391.16;;;20.05;100.00
13348;BME280;6743;49.934;9.138;2022-07-23T04:55:18;100389.94;;;20.01;100.00
13348;BME280;6743;49.934;9.138;2022-07-23T04:57:44;100400.91;;;19.99;100.00
13348;BME280;6743;49.934;9.138;2022-07-23T05:00:12;100417.97;;;19.93;100.00
13348;BME280;6743;49.934;9.138;2022-07-23T05:02:38;100425.47;;;19.91;100.00
13348;BME280;6743;49.934;9.138;2022-07-23T05:05:05;100426.31;;;19.85;100.00
13348;BME280;6743;49.934;9.138;2022-07-23T05:07:32;100428.16;;;19.91;100.00
13348;BME280;6743;49.934;9.138;2022-07-23T05:09:58;100408.06;;;19.69;100.00
13348;BME280;6743;49.934;9.138;2022-07-23T05:12:24;100419.31;;;19.84;100.00
13348;BME280;6743;49.934;9.138;2022-07-23T05:14:50;100437.09;;;19.85;100.00
13348;BME280;6743;49.934;9.138;2022-07-23T05:17:16;100446.00;;;19.86;100.00
13348;BME280;6743;49.934;9.138;2022-07-23T05:19:42;100438.97;;;19.85;100.00
13348;BME280;6743;49.934;9.138;2022-07-23T05:22:08;100455.81;;;19.98;100.00
13348;BME280;6743;49.934;9.138;2022-07-23T05:24:34;100455.59;;;20.00;100.00
13348;BME280;6743;49.934;9.138;2022-07-23T05:27:00;100459.66;;;19.91;100.00
13348;BME280;6743;49.934;9.138;2022-07-23T05:29:26;100463.81;;;19.87;100.00
13348;BME280;6743;49.934;9.138;2022-07-23T05:31:52;100458.88;;;19.84;100.00
13348;BME280;6743;49.934;9.138;2022-07-23T05:34:18;100472.09;;;19.85;100.00
13348;BME280;6743;49.934;9.138;2022-07-23T05:36:44;100468.81;;;19.83;100.00
13348;BME280;6743;49.934;9.138;2022-07-23T05:39:11;100483.44;;;19.94;100.00
13348;BME280;6743;49.934;9.138;2022-07-23T05:41:37;100475.75;;;19.97;100.00
13348;BME280;6743;49.934;9.138;2022-07-23T05:44:03;100476.72;;;20.03;100.00
13348;BME280;6743;49.934;9.138;2022-07-23T05:46:29;100475.22;;;20.07;100.00
13348;BME280;6743;49.934;9.138;2022-07-23T05:48:55;100482.66;;;20.12;100.00
13348;BME280;6743;49.934;9.138;2022-07-23T05:51:22;100465.56;;;19.99;100.00
13348;BME280;6743;49.934;9.138;2022-07-23T05:53:48;100485.94;;;20.14;100.00
13348;BME280;6743;49.934;9.138;2022-07-23T05:56:16;100477.22;;;20.18;100.00
13348;BME280;6743;49.934;9.138;2022-07-23T05:58:42;100482.19;;;20.15;100.00
13348;BME280;6743;49.934;9.138;2022-07-23T06:01:08;100488.47;;;20.09;100.00
13348;BME280;6743;49.934;9.138;2022-07-23T06:03:35;100484.28;;;20.13;100.00
13348;BME280;6743;49.934;9.138;2022-07-23T06:06:01;100479.72;;;20.13;100.00
13348;BME280;6743;49.934;9.138;2022-07-23T06:08:27;100488.25;;;20.10;100.00
13348;BME280;6743;49.934;9.138;2022-07-23T06:10:53;100488.63;;;20.14;100.00
13348;BME280;6743;49.934;9.138;2022-07-23T06:13:20;100486.47;;;20.22;100.00
13348;BME280;6743;49.934;9.138;2022-07-23T06:15:46;100490.75;;;20.30;100.00
13348;BME280;6743;49.934;9.138;2022-07-23T06:18:12;100483.94;;;20.27;100.00
13348;BME280;6743;49.934;9.138;2022-07-23T06:20:38;100517.38;;;20.44;100.00
13348;BME280;6743;49.934;9.138;2022-07-23T06:23:04;100517.47;;;20.56;100.00
13348;BME280;6743;49.934;9.138;2022-07-23T06:25:30;100514.03;;;20.67;100.00
13348;BME280;6743;49.934;9.138;2022-07-23T06:27:56;100509.16;;;20.76;100.00
13348;BME280;6743;49.934;9.138;2022-07-23T06:30:23;100501.31;;;20.74;100.00
13348;BME280;6743;49.934;9.138;2022-07-23T06:32:49;100519.66;;;20.84;100.00
13348;BME280;6743;49.934;9.138;2022-07-23T06:35:16;100502.63;;;20.83;100.00
13348;BME280;6743;49.934;9.138;2022-07-23T06:37:42;100510.00;;;20.95;100.00
13348;BME280;6743;49.934;9.138;2022-07-23T06:40:09;100505.37;;;20.95;100.00
13348;BME280;6743;49.934;9.138;2022-07-23T06:42:35;100505.84;;;20.92;100.00
13348;BME280;6743;49.934;9.138;2022-07-23T06:45:02;100507.22;;;20.83;100.00
13348;BME280;6743;49.934;9.138;2022-07-23T06:47:29;100501.69;;;20.78;100.00
13348;BME280;6743;49.934;9.138;2022-07-23T06:49:55;100493.88;;;20.70;100.00
13348;BME280;6743;49.934;9.138;2022-07-23T06:52:21;100484.91;;;20.58;100.00
13348;BME280;6743;49.934;9.138;2022-07-23T06:54:47;100491.81;;;20.54;100.00
13348;BME280;6743;49.934;9.138;2022-07-23T06:57:13;100481.47;;;20.51;100.00
13348;BME280;6743;49.934;9.138;2022-07-23T06:59:39;100493.12;;;20.63;100.00
13348;BME280;6743;49.934;9.138;2022-07-23T07:02:06;100492.31;;;20.62;100.00
13348;BME280;6743;49.934;9.138;2022-07-23T07:04:33;100502.88;;;20.64;100.00
13348;BME280;6743;49.934;9.138;2022-07-23T07:06:59;100508.69;;;20.61;100.00
13348;BME280;6743;49.934;9.138;2022-07-23T07:09:25;100517.84;;;20.60;100.00
13348;BME280;6743;49.934;9.138;2022-07-23T07:11:51;100510.00;;;20.58;100.00
13348;BME280;6743;49.934;9.138;2022-07-23T07:14:17;100511.09;;;20.51;100.00
13348;BME280;6743;49.934;9.138;2022-07-23T07:16:43;100520.91;;;20.63;100.00
13348;BME280;6743;49.934;9.138;2022-07-23T07:19:09;100522.13;;;20.67;100.00
13348;BME280;6743;49.934;9.138;2022-07-23T07:21:36;100525.25;;;20.64;100.00
13348;BME280;6743;49.934;9.138;2022-07-23T07:24:02;100530.50;;;20.59;100.00
13348;BME280;6743;49.934;9.138;2022-07-23T07:26:28;100539.56;;;20.65;100.00
13348;BME280;6743;49.934;9.138;2022-07-23T07:28:54;100533.97;;;20.66;100.00
13348;BME280;6743;49.934;9.138;2022-07-23T07:31:20;100537.91;;;20.82;100.00
13348;BME280;6743;49.934;9.138;2022-07-23T07:33:46;100534.47;;;20.93;100.00
13348;BME280;6743;49.934;9.138;2022-07-23T07:36:13;100528.31;;;21.04;100.00
13348;BME280;6743;49.934;9.138;2022-07-23T07:38:40;100535.28;;;21.12;100.00
13348;BME280;6743;49.934;9.138;2022-07-23T07:41:06;100546.16;;;21.23;100.00
13348;BME280;6743;49.934;9.138;2022-07-23T07:43:33;100546.16;;;21.23;100.00
13348;BME280;6743;49.934;9.138;2022-07-23T07:45:59;100544.38;;;21.17;100.00
13348;BME280;6743;49.934;9.138;2022-07-23T07:48:25;100556.19;;;21.16;100.00
13348;BME280;6743;49.934;9.138;2022-07-23T07:50:51;100555.37;;;21.16;100.00
13348;BME280;6743;49.934;9.138;2022-07-23T07:53:17;100561.28;;;21.25;100.00
13348;BME280;6743;49.934;9.138;2022-07-23T07:55:44;100566.37;;;21.33;100.00
13348;BME280;6743;49.934;9.138;2022-07-23T07:58:10;100569.59;;;21.41;100.00
13348;BME280;6743;49.934;9.138;2022-07-23T08:00:36;100567.78;;;21.53;100.00
13348;BME280;6743;49.934;9.138;2022-07-23T08:03:02;100570.75;;;21.64;100.00
13348;BME280;6743;49.934;9.138;2022-07-23T08:05:29;100583.34;;;21.70;100.00
13348;BME280;6743;49.934;9.138;2022-07-23T08:07:56;100569.75;;;21.76;100.00
13348;BME280;6743;49.934;9.138;2022-07-23T08:10:23;100575.16;;;21.88;100.00
13348;BME280;6743;49.934;9.138;2022-07-23T08:12:51;100584.62;;;21.97;100.00
13348;BME280;6743;49.934;9.138;2022-07-23T08:15:20;100583.31;;;21.99;100.00
13348;BME280;6743;49.934;9.138;2022-07-23T08:17:47;100583.69;;;22.03;100.00
13348;BME280;6743;49.934;9.138;2022-07-23T08:20:16;100589.81;;;22.10;100.00
13348;BME280;6743;49.934;9.138;2022-07-23T08:22:48;100586.19;;;22.16;100.00
13348;BME280;6743;49.934;9.138;2022-07-23T08:25:15;100583.75;;;22.26;100.00
13348;BME280;6743;49.934;9.138;2022-07-23T08:27:42;100585.84;;;22.36;100.00
13348;BME280;6743;49.934;9.138;2022-07-23T08:30:09;100590.81;;;22.39;100.00
13348;BME280;6743;49.934;9.138;2022-07-23T08:32:48;100593.25;;;22.29;100.00
13348;BME280;6743;49.934;9.138;2022-07-23T08:35:14;100599.03;;;22.32;100.00
13348;BME280;6743;49.934;9.138;2022-07-23T08:37:40;100594.19;;;22.34;100.00
13348;BME280;6743;49.934;9.138;2022-07-23T08:40:07;100594.66;;;22.43;100.00
13348;BME280;6743;49.934;9.138;2022-07-23T08:42:35;100595.59;;;22.49;100.00
13348;BME280;6743;49.934;9.138;2022-07-23T08:45:02;100597.03;;;22.51;100.00
13348;BME280;6743;49.934;9.138;2022-07-23T08:47:29;100607.00;;;22.62;100.00
13348;BME280;6743;49.934;9.138;2022-07-23T08:49:56;100609.97;;;22.72;100.00
13348;BME280;6743;49.934;9.138;2022-07-23T08:52:22;100611.53;;;22.80;100.00
13348;BME280;6743;49.934;9.138;2022-07-23T08:54:48;100605.28;;;22.91;100.00
13348;BME280;6743;49.934;9.138;2022-07-23T08:57:14;100610.41;;;23.04;100.00
13348;BME280;6743;49.934;9.138;2022-07-23T08:59:40;100597.25;;;23.08;100.00
13348;BME280;6743;49.934;9.138;2022-07-23T09:02:06;100604.38;;;23.26;100.00
13348;BME280;6743;49.934;9.138;2022-07-23T09:04:34;100602.94;;;23.35;100.00
13348;BME280;6743;49.934;9.138;2022-07-23T09:07:01;100603.03;;;23.40;100.00
13348;BME280;6743;49.934;9.138;2022-07-23T09:09:27;100602.81;;;23.41;100.00
13348;BME280;6743;49.934;9.138;2022-07-23T09:12:02;100601.97;;;23.41;100.00
13348;BME280;6743;49.934;9.138;2022-07-23T09:17:08;100599.37;;;23.46;100.00
13348;BME280;6743;49.934;9.138;2022-07-23T09:19:35;100597.59;;;23.51;100.00
13348;BME280;6743;49.934;9.138;2022-07-23T09:22:16;100590.16;;;23.59;100.00
13348;BME280;6743;49.934;9.138;2022-07-23T09:25:02;100590.84;;;23.66;100.00
13348;BME280;6743;49.934;9.138;2022-07-23T09:27:46;100593.00;;;23.64;100.00
13348;BME280;6743;49.934;9.138;2022-07-23T09:30:12;100589.78;;;23.67;100.00
13348;BME280;6743;49.934;9.138;2022-07-23T09:32:38;100578.94;;;23.67;100.00
13348;BME280;6743;49.934;9.138;2022-07-23T09:35:06;100591.03;;;23.76;100.00
13348;BME280;6743;49.934;9.138;2022-07-23T09:37:32;100589.25;;;23.81;100.00
13348;BME280;6743;49.934;9.138;2022-07-23T09:40:04;100590.88;;;23.82;100.00
13348;BME280;6743;49.934;9.138;2022-07-23T09:42:30;100584.66;;;23.82;100.00
13348;BME280;6743;49.934;9.138;2022-07-23T09:44:57;100591.38;;;23.79;100.00
13348;BME280;6743;49.934;9.138;2022-07-23T09:47:25;100591.03;;;23.76;100.00
13348;BME280;6743;49.934;9.138;2022-07-23T09:49:59;100584.94;;;23.69;100.00
13348;BME280;6743;49.934;9.138;2022-07-23T09:52:27;100580.59;;;23.68;100.00
13348;BME280;6743;49.934;9.138;2022-07-23T09:54:57;100576.09;;;23.73;100.00
13348;BME280;6743;49.934;9.138;2022-07-23T09:57:24;100572.75;;;23.83;100.00
13348;BME280;6743;49.934;9.138;2022-07-23T09:59:52;100582.69;;;23.94;100.00
13348;BME280;6743;49.934;9.138;2022-07-23T10:02:18;100583.59;;;24.00;100.00
13348;BME280;6743;49.934;9.138;2022-07-23T10:04:45;100582.13;;;24.09;100.00
13348;BME280;6743;49.934;9.138;2022-07-23T10:07:13;100570.56;;;24.13;100.00
13348;BME280;6743;49.934;9.138;2022-07-23T10:09:43;100585.44;;;24.27;100.00
13348;BME280;6743;49.934;9.138;2022-07-23T10:12:12;100588.50;;;24.31;100.00
13348;BME280;6743;49.934;9.138;2022-07-23T10:14:46;100591.28;;;24.36;100.00
13348;BME280;6743;49.934;9.138;2022-07-23T10:17:12;100584.22;;;24.35;100.00
13348;BME280;6743;49.934;9.138;2022-07-23T10:19:38;100580.19;;;24.38;100.00
13348;BME280;6743;49.934;9.138;2022-07-23T10:22:07;100578.06;;;24.40;100.00
13348;BME280;6743;49.934;9.138;2022-07-23T10:24:47;100575.06;;;24.41;100.00
13348;BME280;6743;49.934;9.138;2022-07-23T10:27:38;100572.72;;;24.45;100.00
13348;BME280;6743;49.934;9.138;2022-07-23T10:30:10;100573.28;;;24.47;100.00
13348;BME280;6743;49.934;9.138;2022-07-23T10:32:43;100576.06;;;24.52;100.00
13348;BME280;6743;49.934;9.138;2022-07-23T10:35:18;100571.53;;;24.57;100.00
13348;BME280;6743;49.934;9.138;2022-07-23T10:37:49;100566.03;;;24.52;100.00
13348;BME280;6743;49.934;9.138;2022-07-23T10:40:18;100569.88;;;24.56;100.00
13348;BME280;6743;49.934;9.138;2022-07-23T10:42:46;100565.09;;;24.63;100.00
13348;BME280;6743;49.934;9.138;2022-07-23T10:45:27;100562.50;;;24.68;100.00
13348;BME280;6743;49.934;9.138;2022-07-23T10:47:54;100574.09;;;24.86;100.00
13348;BME280;6743;49.934;9.138;2022-07-23T10:50:22;100565.03;;;24.97;100.00
13348;BME280;6743;49.934;9.138;2022-07-23T10:53:08;100560.53;;;25.02;100.00
13348;BME280;6743;49.934;9.138;2022-07-23T10:55:46;100565.28;;;25.17;100.00
13348;BME280;6743;49.934;9.138;2022-07-23T10:58:21;100571.84;;;25.16;100.00
13348;BME280;6743;49.934;9.138;2022-07-23T11:00:48;100571.25;;;25.14;100.00
13348;BME280;6743;49.934;9.138;2022-07-23T11:03:34;100567.66;;;25.08;100.00
13348;BME280;6743;49.934;9.138;2022-07-23T11:06:04;100567.97;;;25.12;100.00
13348;BME280;6743;49.934;9.138;2022-07-23T11:08:30;100566.41;;;25.16;100.00
13348;BME280;6743;49.934;9.138;2022-07-23T11:11:09;100569.47;;;25.25;100.00
13348;BME280;6743;49.934;9.138;2022-07-23T11:13:39;100561.19;;;25.36;100.00
13348;BME280;6743;49.934;9.138;2022-07-23T11:16:13;100575.66;;;25.42;100.00
13348;BME280;6743;49.934;9.138;2022-07-23T11:19:08;100568.38;;;25.47;100.00
13348;BME280;6743;49.934;9.138;2022-07-23T11:21:50;100566.22;;;25.49;100.00
13348;BME280;6743;49.934;9.138;2022-07-23T11:24:19;100542.28;;;25.46;100.00
13348;BME280;6743;49.934;9.138;2022-07-23T11:26:48;100549.41;;;25.52;100.00
13348;BME280;6743;49.934;9.138;2022-07-23T11:29:43;100564.78;;;25.64;100.00
13348;BME280;6743;49.934;9.138;2022-07-23T11:32:31;100555.97;;;25.57;100.00
13348;BME280;6743;49.934;9.138;2022-07-23T11:34:59;100546.59;;;25.64;100.00
13348;BME280;6743;49.934;9.138;2022-07-23T11:37:35;100552.63;;;25.71;100.00
13348;BME280;6743;49.934;9.138;2022-07-23T11:40:05;100546.22;;;25.82;100.00
13348;BME280;6743;49.934;9.138;2022-07-23T11:42:34;100548.72;;;25.89;100.00
13348;BME280;6743;49.934;9.138;2022-07-23T11:45:01;100558.47;;;25.85;100.00
13348;BME280;6743;49.934;9.138;2022-07-23T11:47:27;100550.31;;;25.85;100.00
13348;BME280;6743;49.934;9.138;2022-07-23T11:49:54;100560.03;;;25.81;100.00
13348;BME280;6743;49.934;9.138;2022-07-23T11:52:21;100554.69;;;25.86;100.00
13348;BME280;6743;49.934;9.138;2022-07-23T11:54:48;100553.56;;;25.87;100.00
13348;BME280;6743;49.934;9.138;2022-07-23T11:57:15;100553.03;;;25.85;100.00
13348;BME280;6743;49.934;9.138;2022-07-23T11:59:42;100556.50;;;25.80;100.00
13348;BME280;6743;49.934;9.138;2022-07-23T12:02:09;100560.00;;;25.76;100.00
13348;BME280;6743;49.934;9.138;2022-07-23T12:04:38;100549.13;;;25.76;100.00
13348;BME280;6743;49.934;9.138;2022-07-23T12:07:23;100550.25;;;25.80;100.00
13348;BME280;6743;49.934;9.138;2022-07-23T12:09:49;100547.12;;;25.93;100.00
13348;BME280;6743;49.934;9.138;2022-07-23T12:12:15;100540.66;;;25.99;100.00
13348;BME280;6743;49.934;9.138;2022-07-23T12:14:48;100538.22;;;26.03;100.00
13348;BME280;6743;49.934;9.138;2022-07-23T12:17:14;100542.34;;;26.05;100.00
13348;BME280;6743;49.934;9.138;2022-07-23T12:19:41;100539.28;;;26.02;98.43
13348;BME280;6743;49.934;9.138;2022-07-23T12:22:07;100537.66;;;26.01;99.01
13348;BME280;6743;49.934;9.138;2022-07-23T12:24:57;100538.00;;;26.09;96.90
13348;BME280;6743;49.934;9.138;2022-07-23T12:27:25;100528.25;;;26.13;95.15
13348;BME280;6743;49.934;9.138;2022-07-23T12:29:52;100529.47;;;26.27;95.35
13348;BME280;6743;49.934;9.138;2022-07-23T12:32:19;100526.19;;;26.25;90.53
13348;BME280;6743;49.934;9.138;2022-07-23T12:34:45;100528.16;;;26.35;89.49
13348;BME280;6743;49.934;9.138;2022-07-23T12:37:26;100521.13;;;26.44;90.52
13348;BME280;6743;49.934;9.138;2022-07-23T12:39:53;100525.25;;;26.47;86.19
13348;BME280;6743;49.934;9.138;2022-07-23T12:42:19;100521.47;;;26.53;89.08
13348;BME280;6743;49.934;9.138;2022-07-23T12:45:04;100527.19;;;26.56;87.09
13348;BME280;6743;49.934;9.138;2022-07-23T12:47:30;100521.81;;;26.61;88.63
13348;BME280;6743;49.934;9.138;2022-07-23T12:49:56;100536.94;;;26.89;84.01
13348;BME280;6743;49.934;9.138;2022-07-23T12:52:22;100521.97;;;26.92;83.87
13348;BME280;6743;49.934;9.138;2022-07-23T12:54:48;100524.16;;;26.95;85.39